createdAt,value
2018-03-04T06:57:59.053Z,57.47
2018-03-04T07:00:27.435Z,59.53
2018-03-04T07:02:55.773Z,58.60
2018-03-04T07:05:24.102Z,56.72
2018-03-04T07:07:52.485Z,58.90
2018-03-04T07:10:20.812Z,57.15
2018-03-04T07:12:49.168Z,55.42
2018-03-04T07:15:17.500Z,54.55
2018-03-04T07:17:45.902Z,54.10
2018-03-04T07:20:14.319Z,55.65
2018-03-04T07:22:42.670Z,58.63
2018-03-04T07:25:11.087Z,54.55
2018-03-04T07:27:39.521Z,54.88
2018-03-04T07:30:07.877Z,62.42
2018-03-04T07:32:36.400Z,57.85
2018-03-04T07:35:04.787Z,56.37
2018-03-04T07:37:33.130Z,56.60
2018-03-04T07:40:01.595Z,53.87
2018-03-04T07:42:29.986Z,54.45
2018-03-04T07:44:58.400Z,54.08
2018-03-04T07:47:26.761Z,55.08
2018-03-04T07:49:55.226Z,50.50
2018-03-04T07:52:23.628Z,55.47
2018-03-04T07:54:51.964Z,55.92
2018-03-04T07:57:20.323Z,54.88
2018-03-04T07:59:48.654Z,56.88
2018-03-04T08:02:16.995Z,57.65
2018-03-04T08:04:45.336Z,56.95
2018-03-04T08:07:13.672Z,61.60
2018-03-04T08:09:42.017Z,53.40
2018-03-04T08:12:10.384Z,55.25
2018-03-04T08:14:39.058Z,56.17
2018-03-04T08:17:07.781Z,56.97
2018-03-04T08:19:36.127Z,53.67
2018-03-04T08:22:04.500Z,56.83
2018-03-04T08:24:38.483Z,59.60
2018-03-04T08:27:19.099Z,57.90
2018-03-04T08:29:47.453Z,59.13
2018-03-04T08:32:15.803Z,57.00
2018-03-04T08:34:44.134Z,57.90
2018-03-04T08:37:12.543Z,57.08
2018-03-04T08:39:40.855Z,59.17
2018-03-04T08:42:09.289Z,58.75
2018-03-04T08:44:37.693Z,61.90
2018-03-04T08:47:06.141Z,58.92
2018-03-04T08:49:34.527Z,60.53
2018-03-04T08:52:02.882Z,58.55
2018-03-04T08:54:31.214Z,59.13
2018-03-04T08:56:59.627Z,59.53
2018-03-04T08:59:27.992Z,59.20
2018-03-04T09:01:56.389Z,55.38
2018-03-04T09:04:24.716Z,59.95
2018-03-04T09:06:53.109Z,55.83
2018-03-04T09:09:21.521Z,53.95
2018-03-04T09:11:49.865Z,55.35
2018-03-04T09:14:18.239Z,60.92
2018-03-04T09:16:46.551Z,57.60
2018-03-04T09:19:14.902Z,54.50
2018-03-04T09:21:43.234Z,57.03
2018-03-04T09:24:11.562Z,55.58
2018-03-04T09:26:40.010Z,57.22
2018-03-04T09:29:08.372Z,55.75
2018-03-04T09:31:36.702Z,55.22
2018-03-04T09:34:05.089Z,54.40
2018-03-04T09:36:33.480Z,56.22
2018-03-04T09:39:01.939Z,52.20
2018-03-04T09:41:30.302Z,57.10
2018-03-04T09:43:58.633Z,56.50
2018-03-04T09:46:26.991Z,55.72
2018-03-04T09:48:55.348Z,53.72
2018-03-04T09:51:23.739Z,50.22
2018-03-04T09:53:52.111Z,51.63
2018-03-04T09:56:20.527Z,57.45
2018-03-04T09:58:48.941Z,56.65
2018-03-04T10:01:17.331Z,52.35
2018-03-04T10:03:45.705Z,56.53
2018-03-04T10:06:14.040Z,49.70
2018-03-04T10:08:42.413Z,55.53
2018-03-04T10:11:10.764Z,55.03
2018-03-04T10:13:39.147Z,48.28
2018-03-04T10:16:07.509Z,47.55
2018-03-04T10:18:35.848Z,47.67
2018-03-04T10:21:04.200Z,50.83
2018-03-04T10:23:32.562Z,51.33
2018-03-04T10:26:00.954Z,53.80
2018-03-04T10:28:29.331Z,47.15
2018-03-04T10:30:57.681Z,45.35
2018-03-04T10:33:26.007Z,44.08
2018-03-04T10:35:54.365Z,48.60
2018-03-04T10:38:22.732Z,46.33
2018-03-04T10:40:51.087Z,43.60
2018-03-04T10:43:19.425Z,40.08
2018-03-04T10:45:47.764Z,40.00
2018-03-04T10:48:16.114Z,44.30
2018-03-04T10:50:44.497Z,40.08
2018-03-04T10:53:12.883Z,38.03
2018-03-04T10:55:41.251Z,39.90
2018-03-04T10:58:09.631Z,40.75
2018-03-04T11:00:44.076Z,39.10
2018-03-04T11:03:16.512Z,42.17
2018-03-04T11:05:46.066Z,42.25
2018-03-04T11:08:14.712Z,41.42
2018-03-04T11:10:43.133Z,39.75
2018-03-04T11:13:11.571Z,40.85
2018-03-04T11:15:39.950Z,39.53
2018-03-04T11:18:09.320Z,42.75
2018-03-04T11:20:38.343Z,40.45
2018-03-04T11:23:06.908Z,43.45
2018-03-04T11:25:35.274Z,40.85
2018-03-04T11:28:03.633Z,41.85
2018-03-04T11:30:32.113Z,44.28
2018-03-04T11:33:02.052Z,44.50
2018-03-04T11:35:30.441Z,42.88
2018-03-04T11:37:58.829Z,43.10
2018-03-04T11:40:27.193Z,41.72
2018-03-04T11:42:55.634Z,44.60
2018-03-04T11:45:24.029Z,45.83
2018-03-04T11:47:52.420Z,43.47
2018-03-04T11:50:20.814Z,44.03
2018-03-04T11:52:49.208Z,45.43
2018-03-04T11:55:17.617Z,47.95
2018-03-04T11:57:46.156Z,44.63
2018-03-04T12:00:14.543Z,42.77
2018-03-04T12:02:42.880Z,43.67
2018-03-04T12:05:11.360Z,46.65
2018-03-04T12:07:39.719Z,45.20
2018-03-04T12:10:08.040Z,43.40
2018-03-04T12:12:36.455Z,48.13
2018-03-04T12:15:04.862Z,46.00
2018-03-04T12:17:33.310Z,46.70
2018-03-04T12:20:01.682Z,46.83
2018-03-04T12:22:30.043Z,44.33
2018-03-04T12:24:58.446Z,47.45
2018-03-04T12:27:26.885Z,47.33
2018-03-04T12:29:55.232Z,44.57
2018-03-04T12:32:23.633Z,47.00
2018-03-04T12:34:51.998Z,43.07
2018-03-04T12:37:20.351Z,43.15
2018-03-04T12:39:48.778Z,45.10
2018-03-04T12:42:17.212Z,45.90
2018-03-04T12:44:45.562Z,47.72
2018-03-04T12:47:13.976Z,47.70
2018-03-04T12:49:42.326Z,45.17
2018-03-04T12:52:10.681Z,46.07
2018-03-04T12:54:39.016Z,45.70
2018-03-04T12:57:07.393Z,46.63
2018-03-04T12:59:35.723Z,45.25
2018-03-04T13:02:04.090Z,47.47
2018-03-04T13:04:32.427Z,44.83
2018-03-04T13:07:00.834Z,48.43
2018-03-04T13:09:29.172Z,50.13
2018-03-04T13:11:57.509Z,46.77
2018-03-04T13:14:25.906Z,48.87
2018-03-04T13:16:54.233Z,48.07
2018-03-04T13:19:22.568Z,47.17
2018-03-04T13:21:50.938Z,44.90
2018-03-04T13:24:19.285Z,46.83
2018-03-04T13:26:47.668Z,46.80
2018-03-04T13:29:16.131Z,46.83
2018-03-04T13:31:44.482Z,45.20
2018-03-04T13:34:12.840Z,48.87
2018-03-04T13:36:41.307Z,43.70
2018-03-04T13:39:09.669Z,47.58
2018-03-04T13:41:38.100Z,45.78
2018-03-04T13:44:06.458Z,48.38
2018-03-04T13:46:34.906Z,46.83
2018-03-04T13:49:03.325Z,41.53
2018-03-04T13:51:31.780Z,45.42
2018-03-04T13:54:00.217Z,45.35
2018-03-04T13:56:28.535Z,45.13
2018-03-04T13:58:56.864Z,43.40
2018-03-04T14:01:25.203Z,43.90
2018-03-04T14:03:53.569Z,44.70
2018-03-04T14:06:21.960Z,43.77
2018-03-04T14:08:50.299Z,43.93
2018-03-04T14:11:18.626Z,48.15
2018-03-04T14:13:46.966Z,46.63
2018-03-04T14:16:15.306Z,47.50
2018-03-04T14:18:43.686Z,47.58
2018-03-04T14:21:12.033Z,47.47
2018-03-04T14:23:40.379Z,46.13
2018-03-04T14:26:08.779Z,46.40
2018-03-04T14:28:37.182Z,48.72
2018-03-04T14:31:12.694Z,45.40
2018-03-04T14:33:41.017Z,47.03
2018-03-04T14:36:09.464Z,47.20
2018-03-04T14:38:37.853Z,47.20
2018-03-04T14:41:06.312Z,44.10
2018-03-04T14:43:34.824Z,45.22
2018-03-04T14:46:03.349Z,44.33
2018-03-04T14:48:31.664Z,47.38
2018-03-04T14:51:00.026Z,45.47
2018-03-04T14:53:28.386Z,43.47
2018-03-04T14:55:56.859Z,45.95
2018-03-04T14:58:25.245Z,47.38
2018-03-04T15:00:53.643Z,44.20
2018-03-04T15:03:22.041Z,44.35
2018-03-04T15:05:50.352Z,44.58
2018-03-04T15:08:18.826Z,48.38
2018-03-04T15:10:47.173Z,48.50
2018-03-04T15:13:15.554Z,45.38
2018-03-04T15:15:43.902Z,45.05
2018-03-04T15:18:12.245Z,47.35
2018-03-04T15:20:40.631Z,44.67
2018-03-04T15:23:08.958Z,44.80
2018-03-04T15:25:37.335Z,46.88
2018-03-04T15:28:05.711Z,44.85
2018-03-04T15:30:34.114Z,46.25
2018-03-04T15:33:02.545Z,44.88
2018-03-04T15:35:30.898Z,45.80
2018-03-04T15:37:59.253Z,44.65
2018-03-04T15:40:28.816Z,43.40
2018-03-04T15:42:57.280Z,46.95
2018-03-04T15:45:25.625Z,46.58
2018-03-04T15:47:54.032Z,45.12
2018-03-04T15:50:22.381Z,47.60
2018-03-04T15:52:50.784Z,47.22
2018-03-04T15:55:19.114Z,46.88
2018-03-04T15:57:47.506Z,46.50
2018-03-04T16:00:15.931Z,45.53
2018-03-04T16:02:44.295Z,47.33
2018-03-04T16:05:12.627Z,50.15
2018-03-04T16:07:41.028Z,46.13
2018-03-04T16:10:09.460Z,46.50
2018-03-04T16:12:37.901Z,44.35
2018-03-04T16:15:06.325Z,47.40
2018-03-04T16:17:34.754Z,47.40
2018-03-04T16:20:03.262Z,45.65
2018-03-04T16:22:31.719Z,47.60
2018-03-04T16:25:00.237Z,48.00
2018-03-04T16:27:28.616Z,47.33
2018-03-04T16:29:56.993Z,49.67
2018-03-04T16:32:25.433Z,43.70
2018-03-04T16:34:53.758Z,45.28
2018-03-04T16:37:22.313Z,45.10
2018-03-04T16:39:50.675Z,46.10
2018-03-04T16:42:19.173Z,45.83
2018-03-04T16:44:47.594Z,46.80
2018-03-04T16:47:16.052Z,44.22
2018-03-04T16:49:44.428Z,43.45
2018-03-04T16:52:12.822Z,48.95
2018-03-04T16:54:41.310Z,45.90
2018-03-04T16:57:09.708Z,49.65
2018-03-04T16:59:38.148Z,45.85
2018-03-04T17:02:06.562Z,45.95
2018-03-04T17:04:35.070Z,46.88
2018-03-04T17:07:03.715Z,46.70
2018-03-04T17:09:32.129Z,47.40
2018-03-04T17:12:00.630Z,49.88
2018-03-04T17:14:28.982Z,45.42
2018-03-04T17:16:57.413Z,47.92
2018-03-04T17:19:25.831Z,47.88
2018-03-04T17:21:54.193Z,52.65
2018-03-04T17:24:22.700Z,49.55
2018-03-04T17:26:51.103Z,49.70
2018-03-04T17:29:19.576Z,51.75
2018-03-04T17:31:48.082Z,47.53
2018-03-04T17:34:16.471Z,49.97
2018-03-04T17:36:44.927Z,50.85
2018-03-04T17:39:13.330Z,54.42
2018-03-04T17:41:41.758Z,48.72
2018-03-04T17:44:10.159Z,46.58
2018-03-04T17:46:38.690Z,53.63
2018-03-04T17:49:07.114Z,52.40
2018-03-04T17:51:35.555Z,49.83
2018-03-04T17:54:03.914Z,48.83
2018-03-04T17:56:32.411Z,50.83
2018-03-04T17:59:00.766Z,52.40
2018-03-04T18:01:29.143Z,49.75
2018-03-04T18:03:57.536Z,51.80
2018-03-04T18:06:25.925Z,52.85
2018-03-04T18:08:54.255Z,48.25
2018-03-04T18:11:22.629Z,49.58
2018-03-04T18:13:50.968Z,52.50
2018-03-04T18:16:19.295Z,47.47
2018-03-04T18:18:47.732Z,49.60
2018-03-04T18:21:16.106Z,49.80
2018-03-04T18:23:44.502Z,49.33
2018-03-04T18:26:12.864Z,49.33
2018-03-04T18:28:41.211Z,48.87
2018-03-04T18:31:09.629Z,48.25
2018-03-04T18:33:37.992Z,51.70
2018-03-04T18:36:06.428Z,50.55
2018-03-04T18:38:34.765Z,51.37
2018-03-04T18:41:03.150Z,50.47
2018-03-04T18:43:31.555Z,50.38
2018-03-04T18:45:59.938Z,50.50
2018-03-04T18:48:28.322Z,50.97
2018-03-04T18:50:56.667Z,47.70
2018-03-04T18:53:25.056Z,49.90
2018-03-04T18:55:53.484Z,53.78
2018-03-04T18:58:21.841Z,52.50
2018-03-04T19:00:50.224Z,54.30
2018-03-04T19:03:18.577Z,53.05
2018-03-04T19:05:46.937Z,54.58
2018-03-04T19:08:15.296Z,54.65
2018-03-04T19:10:43.624Z,53.97
2018-03-04T19:13:12.820Z,55.45
2018-03-04T19:15:41.205Z,49.95
2018-03-04T19:18:09.550Z,53.70
2018-03-04T19:20:38.030Z,51.30
2018-03-04T19:23:06.368Z,53.05
2018-03-04T19:25:34.768Z,48.92
2018-03-04T19:28:03.178Z,53.33
2018-03-04T19:30:31.580Z,53.78
2018-03-04T19:32:59.917Z,50.72
2018-03-04T19:35:28.512Z,51.70
2018-03-04T19:37:56.853Z,51.75
2018-03-04T19:40:25.188Z,52.67
2018-03-04T19:42:53.599Z,51.95
2018-03-04T19:45:21.987Z,53.20
2018-03-04T19:47:50.590Z,51.65
2018-03-04T19:50:18.946Z,53.55
2018-03-04T19:52:47.314Z,53.65
2018-03-04T19:55:16.277Z,56.85
2018-03-04T19:57:44.745Z,55.03
2018-03-04T20:00:13.101Z,51.97
2018-03-04T20:02:43.596Z,53.22
2018-03-04T20:05:12.008Z,53.20
2018-03-04T20:07:40.371Z,51.90
2018-03-04T20:10:08.799Z,53.03
2018-03-04T20:12:37.209Z,51.35
2018-03-04T20:15:05.576Z,53.65
2018-03-04T20:17:33.904Z,54.85
2018-03-04T20:20:02.282Z,52.85
2018-03-04T20:22:30.662Z,58.10
2018-03-04T20:24:59.019Z,55.67
2018-03-04T20:27:27.454Z,57.30
2018-03-04T20:29:55.877Z,54.95
2018-03-04T20:32:24.253Z,55.33
2018-03-04T20:34:52.611Z,58.08
2018-03-04T20:37:21.076Z,59.45
2018-03-04T20:39:49.505Z,54.30
2018-03-04T20:42:17.860Z,58.53
2018-03-04T20:44:46.367Z,58.03
2018-03-04T20:47:14.730Z,58.67
2018-03-04T20:49:43.892Z,59.45
2018-03-04T20:52:12.310Z,59.38
2018-03-04T20:54:40.693Z,56.25
2018-03-04T20:57:09.079Z,59.15
2018-03-04T20:59:37.421Z,58.72
2018-03-04T21:02:05.789Z,58.90
2018-03-04T21:04:34.244Z,58.42
2018-03-04T21:07:02.639Z,60.45
2018-03-04T21:09:31.001Z,59.75
2018-03-04T21:11:59.361Z,59.38
2018-03-04T21:14:28.395Z,57.50
2018-03-04T21:16:56.845Z,61.03
2018-03-04T21:19:25.575Z,58.22
2018-03-04T21:21:54.930Z,59.50
2018-03-04T21:24:23.307Z,56.90
2018-03-04T21:26:52.037Z,59.17
2018-03-04T21:29:20.518Z,57.67
2018-03-04T21:31:49.842Z,60.72
2018-03-04T21:34:18.251Z,58.58
2018-03-04T21:36:46.836Z,63.13
2018-03-04T21:39:15.557Z,56.13
2018-03-04T21:41:44.633Z,56.95
2018-03-04T21:44:13.029Z,57.90
2018-03-04T21:46:41.866Z,57.13
2018-03-04T21:49:10.233Z,61.55
2018-03-04T21:51:39.286Z,54.70
2018-03-04T21:54:08.410Z,57.62
2018-03-04T21:56:36.787Z,57.08
2018-03-04T21:59:05.185Z,54.53
2018-03-04T22:01:34.067Z,58.03
2018-03-04T22:04:02.437Z,55.38
2018-03-04T22:06:30.796Z,57.60
2018-03-04T22:08:59.147Z,57.00
2018-03-04T22:11:27.723Z,60.22
2018-03-04T22:13:56.185Z,59.42
2018-03-04T22:16:24.576Z,57.85
2018-03-04T22:18:52.939Z,60.58
2018-03-04T22:21:21.279Z,56.45
2018-03-04T22:23:50.617Z,57.30
2018-03-04T22:26:18.941Z,56.15
2018-03-04T22:28:47.346Z,54.88
2018-03-04T22:31:15.745Z,57.08
2018-03-04T22:33:44.053Z,57.92
2018-03-04T22:36:12.388Z,57.20
2018-03-04T22:38:40.765Z,57.15
2018-03-04T22:41:09.102Z,61.50
2018-03-04T22:43:37.438Z,58.70
2018-03-04T22:46:05.831Z,60.28
2018-03-04T22:51:09.123Z,58.53
2018-03-04T22:53:37.523Z,59.28
2018-03-04T22:56:05.860Z,60.50
2018-03-04T22:58:34.221Z,55.50
2018-03-04T23:01:02.602Z,63.08
2018-03-04T23:03:30.994Z,63.30
2018-03-04T23:06:00.154Z,58.10
2018-03-04T23:08:28.485Z,58.80
2018-03-04T23:10:56.814Z,57.03
2018-03-04T23:13:25.160Z,62.10
2018-03-04T23:15:53.526Z,58.83
2018-03-04T23:18:21.841Z,62.50
2018-03-04T23:20:50.364Z,62.78
2018-03-04T23:23:18.698Z,61.08
2018-03-04T23:25:47.050Z,54.78
2018-03-04T23:28:15.419Z,57.33
2018-03-04T23:30:43.785Z,57.83
2018-03-04T23:33:12.143Z,55.20
2018-03-04T23:35:40.470Z,56.63
2018-03-04T23:38:08.944Z,59.60
2018-03-04T23:40:37.305Z,65.45
2018-03-04T23:43:05.772Z,58.35
2018-03-04T23:45:34.086Z,60.70
2018-03-04T23:48:02.520Z,54.78
2018-03-04T23:50:30.842Z,58.13
2018-03-04T23:52:59.188Z,62.72
2018-03-04T23:55:27.527Z,60.20
2018-03-04T23:57:55.898Z,58.35
